METAR Reports for West Virginia

 

KMRB - Martinsburg, West Virginia, USA
Distance from station: NW 50mi, 81km
Updated: Wed, 21-Feb-2018 1:53am EST
Clear
Clear
 Wind from S
Wind: S 8 mph , 13 km/h
Temperature: 63°F , 17°C
Dew Point: 54°F , 12°C
Humidity: 73%
Barometer: 30.28 inHg , 1025.4 hPa
Clouds: Clear
Visibility: 10 miles , 16 km
2018/02/21 06:53 KMRB 210653Z AUTO 18007KT 10SM CLR 17/12 A3028 RMK AO2 SLP250 T01670117
KW99 - Petersburg, West Virginia, USA
Distance from station: W 94mi, 151km
Updated: Wed, 21-Feb-2018 2:15am EST
Clear
Clear
 Wind from S
Wind: S 10 mph , 17 km/h
Temperature: 61°F , 16°C
Dew Point: 52°F , 11°C
Humidity: 72%
Barometer: 30.30 inHg , 1026.1 hPa
Clouds: Clear
Visibility: 10 miles , 16 km
2018/02/21 07:15 KW99 210715Z AUTO 17009KT 10SM CLR 16/11 A3030 RMK AO2 T01600112
KEKN - Elkins, West Virginia, USA
Distance from station: W 131mi, 211km
Updated: Wed, 21-Feb-2018 1:51am EST
Few Clouds
Few Clouds
 Wind from SSE
Wind: SSE 7 mph , 11 km/h
Temperature: 57°F , 14°C
Dew Point: 50°F , 10°C
Humidity: 77%
Barometer: 30.34 inHg , 1027.4 hPa
Clouds: Few Clouds
Visibility: 10 miles , 16 km
Cloud details: Few Clouds 6000 ft
2018/02/21 06:51 KEKN 210651Z AUTO 16006KT 10SM FEW060 14/10 A3034 RMK AO2 SLP268 T01440100 TSNO
 
KMGW - Morgantown, West Virginia, USA
Distance from station: WNW 145mi, 234km
Updated: Wed, 21-Feb-2018 1:53am EST
Overcast
Overcast
 Wind from S
Wind: S 8 mph , 13 km/h
Temperature: 66°F , 19°C
Dew Point: 50°F , 10°C
Humidity: 56%
Barometer: 30.26 inHg , 1024.7 hPa
Clouds: Overcast
Visibility: 10 miles , 16 km
Cloud details: Overcast 7000 ft
2018/02/21 06:53 KMGW 210653Z AUTO 19007KT 160V230 10SM OVC070 19/10 A3026 RMK AO2 SLP238 T01890100
KCKB - Clarksburg, West Virginia, USA
Distance from station: WNW 154mi, 247km
Updated: Wed, 21-Feb-2018 1:53am EST
Partly cloudy
Partly cloudy
 Wind from S
Wind: S 9 mph , 15 km/h
Temperature: 66°F , 19°C
Dew Point: 52°F , 11°C
Humidity: 60%
Barometer: 30.26 inHg , 1024.7 hPa
Clouds: Partly cloudy
Visibility: 10 miles , 16 km
Cloud details: Partly cloudy 7000 ft
2018/02/21 06:53 KCKB 210653Z 19008KT 10SM SCT070 19/11 A3026 RMK AO2 SLP233 T01890111
KW22 - Buckhannon, West Virginia, USA
Distance from station: W 154mi, 247km
Updated: Wed, 21-Feb-2018 2:15am EST
Clear
Clear
 Wind from S
Wind: S 8 mph , 13 km/h
Temperature: 64°F , 18°C
Dew Point: 52°F , 11°C
Humidity: 64%
Barometer: 30.27 inHg , 1025.1 hPa
Clouds: Clear
Visibility: 10 miles , 16 km
2018/02/21 07:15 KW22 210715Z AUTO 19007KT 10SM CLR 18/11 A3027 RMK AO2
 
KHLG - Wheeling, West Virginia, USA
Distance from station: WNW 196mi, 315km
Updated: Wed, 21-Feb-2018 1:53am EST
Clear
Clear
 Wind from S
Wind: S 13 mph , 20 km/h
Temperature: 66°F , 19°C
Dew Point: 50°F , 10°C
Humidity: 56%
Barometer: 30.19 inHg , 1022.4 hPa
Clouds: Clear
Visibility: 10 miles , 16 km
2018/02/21 06:53 KHLG 210653Z AUTO 18011KT 10SM CLR 19/10 A3019 RMK AO2 SLP219 T01890100
KPKB - Parkersburg, West Virginia, USA
Distance from station: W 217mi, 350km
Updated: Wed, 21-Feb-2018 1:53am EST
Overcast
Overcast
 Wind from S
Wind: S 9 mph , 15 km/h
Temperature: 68°F , 20°C
Dew Point: 50°F , 10°C
Humidity: 53%
Barometer: 30.23 inHg , 1023.7 hPa
Clouds: Overcast
Visibility: 10 miles , 16 km
Cloud details: Overcast 8000 ft
2018/02/21 06:53 KPKB 210653Z AUTO 18008KT 10SM OVC080 20/10 A3023 RMK AO2 SLP230 T02000100 $
KCRW - Charleston, West Virginia, USA
Distance from station: WSW 227mi, 365km
Updated: Wed, 21-Feb-2018 1:54am EST
Mostly cloudy
Mostly cloudy
 Wind from SSE
Wind: SSE 8 mph , 13 km/h
Temperature: 66°F , 19°C
Dew Point: 52°F , 11°C
Humidity: 60%
Barometer: 30.25 inHg , 1024.4 hPa
Clouds: Mostly cloudy
Visibility: 10 miles , 16 km
Cloud details: Mostly cloudy 8000 ft
2018/02/21 06:54 KCRW 210654Z 16007KT 10SM BKN080 19/11 A3025 RMK AO2 SLP233 T01940111
 
KLWB - Lewisburg, West Virginia, USA
Distance from station: WSW 175mi, 281km
Updated: Wed, 21-Feb-2018 2:15am EST
Mist, Overcast
Mist, Overcast
 Wind from calm
Wind: Calm
Temperature: 45°F , 7°C
Dew Point: 45°F , 7°C
Humidity: 100%
Barometer: 30.40 inHg , 1029.5 hPa
Summary: Mist
Clouds: Overcast
Visibility: 1 mile , 2 km
Cloud details: Overcast 700 ft
2018/02/21 07:15 KLWB 210715Z AUTO 00000KT 1SM BR VV007 07/07 A3040 RMK AO2 VIS 1/2V5 T00710067
KBKW - Beckley, West Virginia, USA
Distance from station: WSW 213mi, 342km
Updated: Wed, 21-Feb-2018 1:51am EST
Few Clouds
Few Clouds
 Wind from SE
Wind: SE 9 mph , 15 km/h
Temperature: 57°F , 14°C
Dew Point: 50°F , 10°C
Humidity: 77%
Barometer: 30.36 inHg , 1028.1 hPa
Clouds: Few Clouds
Visibility: 10 miles , 16 km
Cloud details: Few Clouds 6500 ft
2018/02/21 06:51 KBKW 210651Z AUTO 14008KT 10SM FEW065 14/10 A3036 RMK AO2 SLP256 T01440100 TSNO
KBLF - Bluefield, West Virginia, USA
Distance from station: SW 231mi, 372km
Updated: Wed, 21-Feb-2018 1:52am EST
Clear
Clear
 Wind from S
Wind: S 10 mph , 17 km/h, Gust: 17 mph , 28 km/h
Temperature: 59°F , 15°C
Dew Point: 48°F , 9°C
Humidity: 68%
Barometer: 30.39 inHg , 1029.1 hPa
Clouds: Clear
Visibility: 10 miles , 16 km
2018/02/21 06:52 KBLF 210652Z AUTO 18009G15KT 10SM CLR 15/09 A3039 RMK AO2 SLP265 T01500094
 
KI16 - Pineville, West Virginia, USA
Distance from station: WSW 240mi, 387km
Updated: Mon, 22-Jan-2018 6:55pm EST
NOT Current
Overcast
Overcast
 
Temperature: 52°F , 11°C
Dew Point: 46°F , 8°C
Humidity: 82%
Clouds: Overcast
Visibility: 10 miles , 16 km
Cloud details: Mostly cloudy 8000 ft
Overcast 11000 ft
2018/01/22 23:55 KI16 222355Z AUTO 10SM BKN080 OVC110 11/08 RMK AO2 T01090083 10194 20107
KHTS - Huntington, West Virginia, USA
Distance from station: W 279mi, 449km
Updated: Wed, 21-Feb-2018 1:51am EST
Partly cloudy
Partly cloudy
 Wind from S
Wind: S 9 mph , 15 km/h
Temperature: 70°F , 21°C
Dew Point: 50°F , 10°C
Humidity: 50%
Barometer: 30.22 inHg , 1023.4 hPa
Clouds: Partly cloudy
Visibility: 10 miles , 16 km
Cloud details: Partly cloudy 8000 ft
2018/02/21 06:51 KHTS 210651Z 18008KT 10SM SCT080 21/10 A3022 RMK AO2 SLP225 T02060100